Time;durP1;ratioP1;P1;durP2;ratioP2;P2;SDS_P1;SDS_P2;PMS_P1;PMS_P2;Temp;Humidity;BMP_temperature;BMP_pressure;BME280_temperature;BME280_humidity;BME280_pressure;Samples;Min_cycle;Max_cycle;Signal;HPM_P1;HPM_P2
2022/07/13 00:01:29;;;;;;;3.22;1.88;;;;;;;14.76;96.81;99123.97;5125194;28;20027;-71
2022/07/13 00:03:54;;;;;;;5.82;1.80;;;;;;;14.83;96.42;99117.56;5125175;28;20027;-71
2022/07/13 00:06:20;;;;;;;4.88;1.98;;;;;;;14.84;96.04;99121.97;5125162;28;20047;-71
2022/07/13 00:08:45;;;;;;;14.77;1.88;;;;;;;14.89;96.78;99120.03;5124145;28;20026;-71
2022/07/13 00:11:10;;;;;;;2.28;1.55;;;;;;;14.92;96.40;99117.31;5125060;28;20042;-71
2022/07/13 00:13:36;;;;;;;2.92;2.00;;;;;;;14.92;96.16;99117.31;5125262;28;20027;-71
2022/07/13 00:16:01;;;;;;;1.90;1.70;;;;;;;14.89;95.99;99112.09;5124900;28;20016;-71
2022/07/13 00:18:27;;;;;;;8.18;2.17;;;;;;;14.82;96.17;99118.50;5124951;28;20023;-71
2022/07/13 00:20:52;;;;;;;3.10;2.30;;;;;;;14.85;96.61;99113.97;5124952;28;20120;-71
2022/07/13 00:23:17;;;;;;;6.82;1.98;;;;;;;14.85;96.84;99107.81;5124867;28;20020;-71
2022/07/13 00:25:43;;;;;;;5.50;2.40;;;;;;;14.92;97.02;99109.34;5124864;28;20307;-71
2022/07/13 00:28:08;;;;;;;4.95;1.90;;;;;;;15.01;96.45;99107.31;5124595;28;20067;-71
2022/07/13 00:30:33;;;;;;;3.40;1.83;;;;;;;15.05;96.37;99108.06;5124719;28;20023;-71
2022/07/13 00:32:59;;;;;;;4.20;2.20;;;;;;;15.03;95.98;99109.94;5124734;28;20023;-71
2022/07/13 00:35:24;;;;;;;4.25;2.00;;;;;;;14.98;96.24;99103.88;5124626;28;20023;-71
2022/07/13 00:37:50;;;;;;;7.65;1.88;;;;;;;14.97;96.37;99105.66;5124643;28;20023;-71
2022/07/13 00:40:15;;;;;;;4.05;1.85;;;;;;;14.95;96.57;99098.66;5124662;28;20028;-71
2022/07/13 00:42:40;;;;;;;3.17;2.20;;;;;;;14.91;96.90;99103.19;5124691;28;20015;-71
2022/07/13 00:45:06;;;;;;;2.47;1.95;;;;;;;14.94;97.01;99103.09;5124557;28;20221;-71
2022/07/13 00:47:32;;;;;;;6.57;2.03;;;;;;;14.94;97.06;99096.94;5124570;28;20019;-71
2022/07/13 00:50:06;;;;;;;4.70;1.90;;;;;;;14.97;96.95;99092.41;5124533;28;20087;-71
2022/07/13 00:52:32;;;;;;;3.90;2.20;;;;;;;14.89;97.87;99101.50;5124745;28;20023;-71
2022/07/13 00:54:58;;;;;;;3.25;1.98;;;;;;;14.80;98.62;99104.41;5124467;28;20020;-71
2022/07/13 00:57:26;;;;;;;4.15;2.03;;;;;;;14.85;98.06;99105.16;5124466;28;20090;-71
2022/07/13 00:59:52;;;;;;;4.03;2.00;;;;;;;14.73;98.08;99103.72;5124456;28;20087;-71
2022/07/13 01:02:17;;;;;;;3.63;1.92;;;;;;;14.72;98.39;99101.97;5124569;28;20192;-71
2022/07/13 01:04:43;;;;;;;2.53;1.95;;;;;;;14.73;98.22;99103.72;5124362;28;20023;-71
2022/07/13 01:07:08;;;;;;;3.20;2.00;;;;;;;14.69;98.34;99102.06;5124365;28;20024;-71
2022/07/13 01:09:34;;;;;;;4.90;2.05;;;;;;;14.64;98.89;99103.09;5124292;28;20019;-71
2022/07/13 01:12:00;;;;;;;2.88;2.10;;;;;;;14.61;99.08;99097.88;5124306;28;20041;-71
2022/07/13 01:14:25;;;;;;;7.13;1.80;;;;;;;14.61;99.24;99103.19;5124299;28;20023;-71
2022/07/13 01:16:51;;;;;;;11.05;2.17;;;;;;;14.57;99.28;99101.53;5124299;28;20316;-71
2022/07/13 01:19:17;;;;;;;4.97;2.38;;;;;;;14.50;99.50;99094.69;5125824;28;20023;-71
2022/07/13 01:21:45;;;;;;;5.43;2.03;;;;;;;14.47;99.42;99094.75;5128360;28;20046;-71
2022/07/13 01:24:11;;;;;;;3.75;1.90;;;;;;;14.37;99.99;99093.28;5128284;28;20023;-70
2022/07/13 01:26:40;;;;;;;2.60;1.90;;;;;;;14.17;98.26;99084.94;5128220;28;20043;-70
2022/07/13 01:29:06;;;;;;;7.93;2.25;;;;;;;14.00;96.85;99081.88;5128114;28;20024;-70
2022/07/13 01:31:37;;;;;;;2.45;1.85;;;;;;;14.00;99.12;99087.19;5128156;28;20028;-70
2022/07/13 01:34:03;;;;;;;6.22;1.83;;;;;;;13.99;99.87;99080.16;5128107;28;20027;-70
2022/07/13 01:36:29;;;;;;;4.75;2.08;;;;;;;13.93;100.00;99082.97;5127947;28;20015;-70
2022/07/13 01:38:56;;;;;;;3.30;2.17;;;;;;;13.95;100.00;99081.16;5128006;28;20030;-70
2022/07/13 01:41:22;;;;;;;3.67;2.00;;;;;;;13.87;100.00;99086.63;5128234;28;20015;-70
2022/07/13 01:43:49;;;;;;;3.03;2.08;;;;;;;13.85;100.00;99079.63;5127933;28;20087;-70
2022/07/13 01:46:15;;;;;;;4.60;2.22;;;;;;;13.83;100.00;99076.16;5127915;28;20027;-70
2022/07/13 01:48:40;;;;;;;4.93;2.03;;;;;;;13.72;100.00;99064.97;5127908;28;20019;-70
2022/07/13 01:51:05;;;;;;;2.88;2.00;;;;;;;13.55;99.99;99073.34;5127764;28;20039;-70
2022/07/13 01:53:31;;;;;;;2.92;1.83;;;;;;;13.41;100.00;99074.56;5127728;28;20019;-70
2022/07/13 01:55:56;;;;;;;4.95;2.13;;;;;;;13.24;99.71;99066.16;5127615;28;20019;-70
2022/07/13 01:58:22;;;;;;;4.30;2.20;;;;;;;13.27;100.00;99072.25;5127618;28;20026;-70
2022/07/13 02:00:47;;;;;;;2.58;2.00;;;;;;;13.36;100.00;99065.88;5127616;28;20016;-70
2022/07/13 02:03:12;;;;;;;4.82;2.40;;;;;;;13.40;100.00;99072.81;5127525;28;20024;-70
2022/07/13 02:05:38;;;;;;;4.05;2.47;;;;;;;13.40;100.00;99072.81;5127471;28;20020;-70
2022/07/13 02:08:04;;;;;;;4.22;1.98;;;;;;;13.32;100.00;99073.00;5127444;28;20342;-70
2022/07/13 02:10:35;;;;;;;4.55;2.38;;;;;;;13.30;100.00;99076.59;5127370;28;20027;-70
2022/07/13 02:13:06;;;;;;;6.67;2.00;;;;;;;13.22;100.00;99078.56;5127412;28;20298;-70
2022/07/13 02:15:32;;;;;;;3.55;2.05;;;;;;;13.16;100.00;99084.81;5127252;28;20215;-70
2022/07/13 02:17:57;;;;;;;8.50;2.53;;;;;;;12.99;100.00;99068.47;5127250;28;20023;-70
2022/07/13 02:20:23;;;;;;;6.55;2.40;;;;;;;12.87;100.00;99064.31;5127163;28;20024;-70
2022/07/13 02:22:48;;;;;;;4.43;2.40;;;;;;;12.83;100.00;99057.34;5127186;28;20019;-70
2022/07/13 02:25:14;;;;;;;3.33;2.38;;;;;;;12.85;100.00;99050.25;5127163;28;20020;-70
2022/07/13 02:27:40;;;;;;;5.30;2.00;;;;;;;12.79;100.00;99053.00;5126882;28;20039;-70
2022/07/13 02:30:06;;;;;;;6.80;2.08;;;;;;;12.62;100.00;99049.00;5126573;28;20023;-70
2022/07/13 02:32:33;;;;;;;5.90;2.30;;;;;;;12.68;100.00;99051.50;5126675;28;20051;-70
2022/07/13 02:34:58;;;;;;;7.15;2.45;;;;;;;12.75;100.00;99055.75;5127075;28;20019;-70
2022/07/13 02:37:23;;;;;;;3.72;2.20;;;;;;;12.80;100.00;99048.63;5126937;28;20337;-70
2022/07/13 02:39:51;;;;;;;5.28;2.08;;;;;;;12.66;100.00;99046.25;5126858;28;20084;-70
2022/07/13 02:42:17;;;;;;;2.70;1.88;;;;;;;12.62;99.88;99039.31;5126823;28;20082;-70
2022/07/13 02:44:42;;;;;;;7.43;2.28;;;;;;;12.51;99.44;99041.31;5126856;28;20030;-70
2022/07/13 02:47:07;;;;;;;4.25;2.45;;;;;;;12.37;99.42;99040.72;5126676;28;20015;-70
2022/07/13 02:49:33;;;;;;;2.80;1.90;;;;;;;12.34;99.45;99032.84;5126651;28;20026;-70
2022/07/13 02:51:58;;;;;;;3.95;1.95;;;;;;;12.43;100.00;99029.16;5126595;28;20359;-70
2022/07/13 02:54:23;;;;;;;7.68;2.40;;;;;;;12.28;100.00;99032.97;5126631;28;20023;-70
2022/07/13 02:56:49;;;;;;;4.70;2.30;;;;;;;12.27;100.00;99035.63;5126693;28;20019;-70
2022/07/13 02:59:14;;;;;;;2.95;2.30;;;;;;;12.32;100.00;99032.03;5126731;28;20023;-70
2022/07/13 03:01:39;;;;;;;4.38;2.20;;;;;;;12.32;100.00;99034.69;5126884;28;20061;-70
2022/07/13 03:04:05;;;;;;;3.78;2.10;;;;;;;12.27;100.00;99039.16;5126783;28;20025;-70
2022/07/13 03:06:31;;;;;;;4.38;2.40;;;;;;;12.27;100.00;99036.53;5126597;28;20315;-70
2022/07/13 03:08:56;;;;;;;2.72;2.03;;;;;;;12.17;100.00;99034.09;5126935;28;20095;-70
2022/07/13 03:11:22;;;;;;;5.85;2.38;;;;;;;12.18;100.00;99041.97;5126577;28;20319;-70
2022/07/13 03:13:47;;;;;;;5.82;2.30;;;;;;;12.15;100.00;99031.47;5126461;28;20023;-70
2022/07/13 03:16:13;;;;;;;3.22;2.22;;;;;;;11.99;100.00;99037.94;5126542;28;20028;-70
2022/07/13 03:18:38;;;;;;;3.90;2.85;;;;;;;11.95;100.00;99038.91;5126337;28;20023;-70
2022/07/13 03:21:07;;;;;;;6.07;2.67;;;;;;;11.99;100.00;99037.09;5126389;28;20307;-70
2022/07/13 03:23:32;;;;;;;3.97;2.00;;;;;;;11.97;100.00;99031.84;5126398;28;20024;-70
2022/07/13 03:25:58;;;;;;;3.25;2.60;;;;;;;11.81;100.00;99025.09;5126182;28;20061;-70
2022/07/13 03:28:23;;;;;;;4.68;2.47;;;;;;;11.78;100.00;99027.81;5126262;28;20031;-70
2022/07/13 03:30:49;;;;;;;3.75;2.75;;;;;;;11.85;100.00;99033.81;5126336;28;20073;-70
2022/07/13 03:33:14;;;;;;;3.50;2.45;;;;;;;11.86;100.00;99025.88;5126242;28;20026;-70
2022/07/13 03:35:39;;;;;;;3.97;2.30;;;;;;;12.00;100.00;99025.63;5126147;28;20016;-70
2022/07/13 03:38:05;;;;;;;3.05;2.35;;;;;;;12.09;100.00;99025.47;5126113;28;20019;-70
2022/07/13 03:40:30;;;;;;;4.03;2.40;;;;;;;12.18;100.00;99025.28;5125918;28;20023;-70
2022/07/13 03:42:55;;;;;;;4.35;2.30;;;;;;;12.31;100.00;99025.00;5125797;28;20047;-70
2022/07/13 03:45:21;;;;;;;8.85;2.55;;;;;;;12.39;100.00;99028.38;5125862;28;20016;-70
2022/07/13 03:47:46;;;;;;;6.32;2.28;;;;;;;12.44;100.00;99026.47;5125763;28;20019;-70
2022/07/13 03:50:11;;;;;;;6.13;2.35;;;;;;;12.41;100.00;99023.91;5125813;28;20031;-70
2022/07/13 03:52:37;;;;;;;3.25;2.38;;;;;;;12.33;100.00;99025.84;5125748;28;20506;-70
2022/07/13 03:55:02;;;;;;;3.33;2.40;;;;;;;12.30;100.00;99030.31;5125745;28;20023;-70
2022/07/13 03:57:28;;;;;;;12.55;2.60;;;;;;;12.25;100.00;99030.38;5125850;28;20031;-70
2022/07/13 03:59:53;;;;;;;7.05;1.80;;;;;;;12.18;99.77;99026.13;5125783;28;20030;-70
2022/07/13 04:02:18;;;;;;;4.93;2.10;;;;;;;12.16;99.96;99022.69;5125734;28;20054;-70
2022/07/13 04:04:44;;;;;;;4.10;2.20;;;;;;;12.13;100.00;99022.75;5125657;28;20050;-70
2022/07/13 04:07:09;;;;;;;4.00;2.00;;;;;;;12.14;100.00;99024.47;5125587;28;20019;-70
2022/07/13 04:09:35;;;;;;;3.38;2.00;;;;;;;12.11;100.00;99013.09;5125470;28;20083;-70
2022/07/13 04:12:00;;;;;;;5.57;2.75;;;;;;;12.07;100.00;99007.03;5125414;28;20363;-70
2022/07/13 04:14:25;;;;;;;4.22;2.38;;;;;;;12.04;100.00;99008.84;5125488;28;20019;-70
2022/07/13 04:16:51;;;;;;;3.38;2.25;;;;;;;12.16;100.00;98996.28;5125229;28;20020;-70
2022/07/13 04:19:16;;;;;;;3.17;2.25;;;;;;;12.28;100.00;99011.84;5125406;28;20331;-70
2022/07/13 04:21:41;;;;;;;4.47;2.58;;;;;;;12.34;100.00;99005.59;5125317;28;20219;-70
2022/07/13 04:24:07;;;;;;;4.45;2.10;;;;;;;12.47;100.00;99002.66;5125261;28;20026;-70
2022/07/13 04:26:33;;;;;;;3.15;2.40;;;;;;;12.61;100.00;99005.91;5125036;28;20036;-70
2022/07/13 04:28:58;;;;;;;2.88;2.40;;;;;;;12.71;100.00;99007.44;5124985;28;20058;-70
2022/07/13 04:31:24;;;;;;;4.80;2.38;;;;;;;12.76;100.00;99005.53;5125138;28;20026;-70
2022/07/13 04:33:49;;;;;;;5.05;2.58;;;;;;;12.73;100.00;99010.91;5125001;28;20026;-70
2022/07/13 04:36:14;;;;;;;3.25;2.25;;;;;;;12.85;100.00;99015.91;5124970;28;20023;-70
2022/07/13 04:38:40;;;;;;;3.20;2.20;;;;;;;12.93;100.00;99013.09;5125214;28;20023;-70
2022/07/13 04:41:05;;;;;;;3.55;2.05;;;;;;;13.09;99.53;99011.88;5124859;28;20024;-70
2022/07/13 04:43:30;;;;;;;3.28;1.90;;;;;;;13.15;99.29;99026.72;5124837;28;20274;-70
2022/07/13 04:45:57;;;;;;;8.27;2.28;;;;;;;13.18;99.38;99024.00;5124890;28;20038;-70
2022/07/13 04:48:22;;;;;;;3.58;2.10;;;;;;;13.23;98.97;99014.19;5124904;28;20345;-70
2022/07/13 04:50:47;;;;;;;8.35;2.40;;;;;;;13.14;98.86;99020.56;5124681;28;20035;-70
2022/07/13 04:53:13;;;;;;;8.45;2.17;;;;;;;13.18;98.86;99016.94;5124562;28;20026;-70
2022/07/13 04:55:38;;;;;;;4.53;2.20;;;;;;;13.42;99.71;99020.78;5124311;28;20027;-70
2022/07/13 04:58:05;;;;;;;5.38;2.70;;;;;;;13.54;99.94;99023.13;5124664;28;20054;-70
2022/07/13 05:00:30;;;;;;;4.82;2.45;;;;;;;13.59;99.93;99021.22;5124664;28;20023;-70
2022/07/13 05:02:56;;;;;;;3.85;1.98;;;;;;;13.76;99.12;99025.16;5124530;28;20015;-70
2022/07/13 05:05:21;;;;;;;3.13;2.30;;;;;;;13.87;98.75;99022.25;5124573;28;20015;-70
2022/07/13 05:07:47;;;;;;;3.28;2.30;;;;;;;13.99;97.84;99024.56;5124529;28;20050;-70
2022/07/13 05:10:12;;;;;;;4.70;2.00;;;;;;;14.16;98.63;99022.34;5124490;28;20030;-70
2022/07/13 05:12:40;;;;;;;4.22;2.30;;;;;;;14.25;97.99;99028.28;5124392;28;20020;-70
2022/07/13 05:15:07;;;;;;;4.82;1.90;;;;;;;14.35;96.78;99026.25;5124346;28;20215;-70
2022/07/13 05:17:33;;;;;;;5.75;2.00;;;;;;;14.42;96.62;99030.44;5124549;28;20042;-70
2022/07/13 05:19:58;;;;;;;3.63;2.08;;;;;;;14.43;96.37;99030.41;5124289;28;20335;-70
2022/07/13 05:22:23;;;;;;;4.22;1.92;;;;;;;14.58;96.17;99039.69;5124324;28;20060;-70
2022/07/13 05:24:49;;;;;;;5.78;2.60;;;;;;;14.71;96.93;99036.66;5124224;28;20032;-70
2022/07/13 05:27:14;;;;;;;3.63;1.88;;;;;;;14.86;97.24;99040.63;5124109;28;20084;-70
2022/07/13 05:29:39;;;;;;;4.13;2.30;;;;;;;14.99;97.40;99055.25;5124164;28;20019;-70
2022/07/13 05:32:06;;;;;;;3.92;2.40;;;;;;;15.07;97.27;99054.09;5124186;28;20030;-70
2022/07/13 05:34:31;;;;;;;6.18;2.65;;;;;;;15.09;97.94;99056.69;5124178;28;20024;-70
2022/07/13 05:36:57;;;;;;;2.08;1.83;;;;;;;15.18;98.58;99059.94;5124082;28;20201;-70
2022/07/13 05:39:22;;;;;;;2.97;2.22;;;;;;;15.26;98.60;99067.66;5124102;28;20042;-70
2022/07/13 05:41:47;;;;;;;4.43;2.30;;;;;;;15.35;98.24;99062.09;5124101;28;20023;-70
2022/07/13 05:44:13;;;;;;;6.55;2.40;;;;;;;15.37;98.23;99070.03;5124276;28;20065;-70
2022/07/13 05:46:38;;;;;;;6.00;2.28;;;;;;;15.35;98.41;99062.09;5123988;28;20039;-70
2022/07/13 05:49:03;;;;;;;4.80;2.25;;;;;;;15.40;98.10;99060.16;5123952;28;20335;-70
2022/07/13 05:51:29;;;;;;;3.47;2.35;;;;;;;15.55;97.07;99065.00;5124012;28;20065;-70
2022/07/13 05:53:54;;;;;;;6.18;2.55;;;;;;;15.56;96.60;99063.22;5123988;28;20019;-70
2022/07/13 05:56:20;;;;;;;5.07;2.10;;;;;;;15.76;96.94;99061.63;5124044;28;20024;-70
2022/07/13 05:58:45;;;;;;;3.40;1.85;;;;;;;16.05;96.66;99066.84;5123951;28;20025;-70
2022/07/13 06:01:10;;;;;;;5.65;2.00;;;;;;;16.32;95.33;99060.53;5123879;28;20031;-70
2022/07/13 06:03:36;;;;;;;5.35;2.33;;;;;;;16.71;93.10;99067.09;5123868;28;20028;-70
2022/07/13 06:06:01;;;;;;;4.60;3.17;;;;;;;17.24;91.62;99063.28;5124625;28;20086;-70
2022/07/13 06:08:26;;;;;;;3.92;1.90;;;;;;;17.75;87.19;99056.81;5127493;28;20065;-70
2022/07/13 06:10:53;;;;;;;3.38;1.88;;;;;;;17.97;84.71;99052.34;5127382;28;20023;-70
2022/07/13 06:13:18;;;;;;;5.93;2.05;;;;;;;18.32;84.30;99057.03;5127437;28;20231;-70
2022/07/13 06:15:44;;;;;;;4.43;2.05;;;;;;;18.39;84.12;99061.19;5127489;28;20031;-70
2022/07/13 06:18:09;;;;;;;6.38;1.90;;;;;;;18.60;83.65;99060.22;5127332;28;20091;-70
2022/07/13 06:20:34;;;;;;;6.03;2.08;;;;;;;18.79;84.32;99063.78;5127268;28;20083;-70
2022/07/13 06:23:09;;;;;;;4.22;2.10;;;;;;;18.79;84.16;99061.09;5127241;28;20123;-70
2022/07/13 06:25:35;;;;;;;3.20;1.88;;;;;;;18.91;83.68;99064.09;5127211;28;20039;-70
2022/07/13 06:28:00;;;;;;;6.50;1.90;;;;;;;19.06;83.14;99062.53;5126929;28;20047;-70
2022/07/13 06:30:26;;;;;;;4.45;1.90;;;;;;;19.19;82.53;99069.03;5127139;28;20050;-70
2022/07/13 06:32:51;;;;;;;3.97;2.00;;;;;;;19.31;83.29;99060.47;5127071;28;20227;-70
2022/07/13 06:35:16;;;;;;;4.18;1.60;;;;;;;19.63;82.24;99067.78;5126940;28;20028;-70
2022/07/13 06:37:42;;;;;;;3.08;1.60;;;;;;;19.93;81.33;99065.41;5127011;28;20023;-70
2022/07/13 06:40:08;;;;;;;2.30;1.80;;;;;;;20.06;81.12;99062.03;5126853;28;20042;-70
2022/07/13 06:42:33;;;;;;;6.93;1.73;;;;;;;20.55;79.81;99063.97;5126882;28;20246;-70
2022/07/13 06:44:58;;;;;;;2.47;1.70;;;;;;;20.90;78.17;99062.94;5126809;28;20016;-70
2022/07/13 06:47:24;;;;;;;7.45;1.98;;;;;;;21.65;75.18;99059.66;5126850;28;20094;-70
2022/07/13 06:49:49;;;;;;;5.80;1.85;;;;;;;23.91;69.52;99068.78;5126757;28;20079;-70
2022/07/13 06:52:14;;;;;;;9.30;2.20;;;;;;;25.18;63.79;99079.69;5126617;28;20076;-70
2022/07/13 06:54:40;;;;;;;8.93;1.77;;;;;;;26.31;59.34;99073.97;5126498;28;20078;-71
2022/07/13 06:57:06;;;;;;;2.80;1.50;;;;;;;27.88;55.58;99071.28;5126809;28;20019;-71
2022/07/13 06:59:31;;;;;;;5.07;1.38;;;;;;;28.56;50.93;99071.75;5126509;28;20315;-71
2022/07/13 07:01:57;;;;;;;3.75;1.50;;;;;;;29.44;50.85;99074.84;5126495;28;20020;-71
2022/07/13 07:04:22;;;;;;;11.00;1.45;;;;;;;29.78;48.82;99070.88;5126647;28;20042;-71
2022/07/13 07:06:48;;;;;;;1.73;1.20;;;;;;;31.15;46.85;99075.06;5126350;28;20015;-71
2022/07/13 07:09:13;;;;;;;2.85;1.40;;;;;;;31.51;43.96;99076.97;5126293;28;20027;-71
2022/07/13 07:11:38;;;;;;;2.65;1.30;;;;;;;30.67;45.47;99067.00;5126269;28;20019;-71
2022/07/13 07:14:04;;;;;;;2.85;1.20;;;;;;;29.53;48.56;99060.47;5126207;28;20027;-71
2022/07/13 07:16:29;;;;;;;2.97;1.45;;;;;;;29.85;48.43;99063.88;5125655;28;20051;-71
2022/07/13 07:18:55;;;;;;;1.40;1.20;;;;;;;28.71;49.78;99054.19;5126129;28;20218;-71
2022/07/13 07:21:20;;;;;;;3.88;1.05;;;;;;;28.32;50.15;99052.13;5125993;28;20061;-71
2022/07/13 07:23:47;;;;;;;3.80;1.20;;;;;;;27.90;52.76;99052.19;5126229;28;20095;-71
2022/07/13 07:26:12;;;;;;;4.50;1.40;;;;;;;27.31;53.92;99040.84;5126047;28;20047;-71
2022/07/13 07:28:38;;;;;;;2.63;1.42;;;;;;;27.25;55.08;99052.13;5125866;28;20019;-71
2022/07/13 07:31:03;;;;;;;4.05;1.25;;;;;;;27.26;54.42;99043.03;5125899;28;20020;-71
2022/07/13 07:33:29;;;;;;;5.60;1.25;;;;;;;27.04;53.68;99043.00;5125875;28;20129;-71
2022/07/13 07:35:54;;;;;;;2.72;1.40;;;;;;;26.96;52.13;99035.50;5125728;28;20016;-71
2022/07/13 07:38:20;;;;;;;2.38;1.70;;;;;;;27.02;54.02;99037.72;5125730;28;20039;-71
2022/07/13 07:40:45;;;;;;;2.25;1.15;;;;;;;27.27;53.39;99039.34;5125751;28;20090;-71
2022/07/13 07:43:11;;;;;;;5.10;1.23;;;;;;;27.24;53.69;99029.63;5125627;28;20383;-71
2022/07/13 07:45:36;;;;;;;3.13;1.08;;;;;;;27.28;53.88;99041.91;5125598;28;20015;-71
2022/07/13 07:48:02;;;;;;;4.10;1.00;;;;;;;28.03;54.55;99050.19;5125559;28;20019;-71
2022/07/13 07:50:28;;;;;;;2.80;1.17;;;;;;;28.52;51.96;99043.22;5125488;28;20030;-71
2022/07/13 07:52:53;;;;;;;1.92;1.00;;;;;;;28.88;48.89;99044.56;5125433;28;20023;-71
2022/07/13 07:55:19;;;;;;;4.35;1.15;;;;;;;29.06;46.72;99034.88;5125364;28;20023;-71
2022/07/13 07:57:49;;;;;;;3.33;0.95;;;;;;;29.82;47.30;99047.88;5125358;28;20023;-71
2022/07/13 08:00:15;;;;;;;2.60;1.20;;;;;;;30.54;44.81;99041.09;5125557;28;20015;-71
2022/07/13 08:02:41;;;;;;;3.20;0.90;;;;;;;31.80;41.94;99044.16;5125288;28;20027;-71
2022/07/13 08:05:08;;;;;;;3.03;0.70;;;;;;;31.81;40.58;99035.00;5125222;28;20019;-71
2022/07/13 08:07:33;;;;;;;2.38;1.02;;;;;;;32.84;36.76;99043.34;5125406;28;20065;-71
2022/07/13 08:09:59;;;;;;;3.40;0.80;;;;;;;32.35;37.16;99040.38;5125185;28;20314;-71
2022/07/13 08:12:24;;;;;;;2.95;0.80;;;;;;;31.38;39.42;99032.91;5125178;28;20290;-71
2022/07/13 08:14:49;;;;;;;1.20;0.60;;;;;;;31.10;41.64;99034.72;5125022;28;20026;-71
2022/07/13 08:17:15;;;;;;;3.70;1.08;;;;;;;31.61;40.75;99028.81;5125073;28;20047;-71
2022/07/13 08:19:40;;;;;;;2.35;0.80;;;;;;;30.34;42.45;99033.97;5124996;28;20256;-71
2022/07/13 08:22:06;;;;;;;0.93;0.70;;;;;;;30.26;42.89;99033.81;5124903;28;20223;-71
2022/07/13 08:24:31;;;;;;;2.00;0.70;;;;;;;30.32;43.05;99035.97;5124928;28;20073;-71
2022/07/13 08:26:57;;;;;;;5.10;0.88;;;;;;;29.71;44.69;99023.59;5124663;28;20044;-71
2022/07/13 08:29:22;;;;;;;2.35;0.68;;;;;;;29.15;43.88;99037.66;5124300;28;20215;-71
2022/07/13 08:31:47;;;;;;;2.72;0.70;;;;;;;29.01;44.55;99037.97;5124868;28;20383;-71
2022/07/13 08:39:41;;;;;;;3.30;0.80;;;;;;;29.32;47.36;99043.44;5124720;28;20027;-71
2022/07/13 08:42:07;;;;;;;7.97;0.85;;;;;;;29.63;48.14;99036.97;5124685;28;20055;-71
2022/07/13 08:44:32;;;;;;;1.67;0.70;;;;;;;29.75;46.61;99041.31;5124554;28;20019;-71
2022/07/13 08:46:59;;;;;;;2.90;0.80;;;;;;;29.63;45.97;99020.69;5124636;28;20019;-71
2022/07/13 08:49:26;;;;;;;1.02;0.60;;;;;;;29.95;45.55;99032.19;5124691;28;20023;-71
2022/07/13 08:51:52;;;;;;;4.00;0.85;;;;;;;29.73;45.51;99029.75;5124512;28;20030;-71
2022/07/13 08:54:17;;;;;;;4.95;0.82;;;;;;;30.01;44.76;99026.19;5124552;28;20028;-71
2022/07/13 08:56:42;;;;;;;3.00;0.75;;;;;;;30.27;44.57;99027.38;5124413;28;20052;-71
2022/07/13 08:59:08;;;;;;;5.75;0.90;;;;;;;30.61;41.68;99025.94;5124494;28;20331;-71
2022/07/13 09:01:33;;;;;;;2.88;0.75;;;;;;;31.02;41.18;99031.03;5124482;28;20046;-71
2022/07/13 09:04:00;;;;;;;1.95;0.73;;;;;;;31.45;41.85;99028.59;5124488;28;20020;-71
2022/07/13 09:06:42;;;;;;;2.25;0.65;;;;;;;32.17;38.13;99032.16;5124687;28;20012;-71
2022/07/13 09:09:22;;;;;;;3.97;0.95;;;;;;;33.04;38.69;99041.31;5124626;28;20132;-71
2022/07/13 09:11:47;;;;;;;0.70;0.70;;;;;;;33.61;36.25;99031.56;5124536;28;20020;-71
2022/07/13 09:14:23;;;;;;;3.65;0.90;;;;;;;33.63;36.09;99040.47;5124333;28;20050;-71
2022/07/13 09:16:51;;;;;;;0.80;0.70;;;;;;;34.06;34.67;99048.47;5124355;28;20231;-71
2022/07/13 09:19:17;;;;;;;1.67;0.70;;;;;;;34.55;35.18;99040.19;5124394;28;20020;-71
2022/07/13 09:21:42;;;;;;;1.75;0.50;;;;;;;35.38;33.98;99041.69;5124253;28;20020;-71
2022/07/13 09:24:07;;;;;;;1.85;0.68;;;;;;;35.03;32.45;99033.88;5124257;28;20028;-71
2022/07/13 09:26:44;;;;;;;2.72;0.70;;;;;;;34.70;31.95;99026.69;5124097;28;20043;-71
2022/07/13 09:29:12;;;;;;;4.25;0.60;;;;;;;34.84;33.92;99035.09;5124488;28;20019;-71
2022/07/13 09:31:54;;;;;;;3.22;0.70;;;;;;;34.75;31.95;99035.25;5124229;28;20050;-71
2022/07/13 09:34:21;;;;;;;1.35;0.80;;;;;;;34.17;31.07;99026.31;5124141;28;20047;-71
2022/07/13 09:37:10;;;;;;;1.25;0.73;;;;;;;35.24;30.47;99031.41;5124061;28;20024;-71
2022/07/13 09:39:55;;;;;;;2.10;0.60;;;;;;;35.65;31.69;99034.91;5124271;28;20035;-71
2022/07/13 09:42:32;;;;;;;0.70;0.60;;;;;;;35.15;30.02;99016.06;5128266;28;20019;-71
2022/07/13 09:47:53;;;;;;;;;;;;;;;35.13;29.40;99018.13;5128472;28;20026;-71
2022/07/13 09:50:20;;;;;;;1.20;0.75;;;;;;;33.96;31.24;99012.25;5127999;28;19907;-71
2022/07/13 09:52:46;;;;;;;0.38;0.38;;;;;;;33.78;34.70;99016.97;5127979;28;20319;-71
2022/07/13 09:55:15;;;;;;;2.92;0.57;;;;;;;33.39;32.93;99021.22;5128049;28;20255;-71
2022/07/13 09:57:52;;;;;;;2.28;0.60;;;;;;;33.95;31.29;99013.28;5127850;28;20028;-71
2022/07/13 10:00:19;;;;;;;0.43;0.40;;;;;;;33.92;28.85;99019.06;5127820;28;20357;-71
2022/07/13 10:02:48;;;;;;;1.08;0.60;;;;;;;34.85;28.71;99033.22;5127622;28;20027;-71
2022/07/13 10:05:18;;;;;;;4.03;0.50;;;;;;;36.52;30.65;99049.16;5127662;28;20018;-71
2022/07/13 10:07:45;;;;;;;0.77;0.60;;;;;;;37.10;28.02;99034.81;5127559;28;20057;-71
2022/07/13 10:10:12;;;;;;;1.55;0.65;;;;;;;36.20;26.13;99019.22;5127450;28;20015;-71
2022/07/13 10:12:38;;;;;;;2.47;0.52;;;;;;;36.06;27.20;99018.09;5127702;28;20019;-71
2022/07/13 10:15:06;;;;;;;2.03;0.60;;;;;;;35.63;27.14;99010.44;5127323;28;20027;-71
2022/07/13 10:17:32;;;;;;;0.60;0.60;;;;;;;35.65;28.11;99011.09;5127399;28;20050;-71
2022/07/13 10:20:03;;;;;;;0.57;0.38;;;;;;;35.92;28.29;99016.13;5127346;28;20031;-71
2022/07/13 10:22:34;;;;;;;2.78;0.70;;;;;;;35.90;26.80;99001.75;5127310;28;20020;-71
2022/07/13 10:25:00;;;;;;;2.17;0.43;;;;;;;36.65;24.13;99009.13;5127219;28;20027;-71
2022/07/13 10:27:30;;;;;;;2.38;0.60;;;;;;;36.78;24.84;99008.50;5126899;28;20048;-71
2022/07/13 10:30:02;;;;;;;0.30;0.30;;;;;;;36.92;25.30;99009.59;5127090;28;20028;-71
2022/07/13 10:32:33;;;;;;;3.05;0.60;;;;;;;36.16;25.74;98996.78;5127286;28;20057;-71
2022/07/13 10:35:10;;;;;;;2.60;0.50;;;;;;;36.82;26.15;98996.97;5127248;28;20023;-71
2022/07/13 10:38:00;;;;;;;0.40;0.40;;;;;;;36.55;27.13;99003.03;5126974;28;20020;-71
2022/07/13 10:40:29;;;;;;;0.60;0.60;;;;;;;37.05;26.93;98998.81;5126890;28;20016;-71
2022/07/13 10:42:54;;;;;;;0.65;0.60;;;;;;;35.83;27.41;98984.34;5126923;28;20254;-71
2022/07/13 10:45:38;;;;;;;1.15;0.77;;;;;;;35.28;27.48;98978.03;5126819;28;20039;-71
2022/07/13 10:48:18;;;;;;;3.15;0.60;;;;;;;35.68;27.25;98980.63;5126802;28;20090;-71
2022/07/13 10:50:52;;;;;;;0.93;0.57;;;;;;;35.32;30.11;98978.53;5126978;28;20023;-71
2022/07/13 10:53:19;;;;;;;2.95;0.52;;;;;;;35.15;29.55;98961.31;5126096;28;20238;-71
2022/07/13 10:55:46;;;;;;;1.60;0.60;;;;;;;34.08;30.03;98948.06;5126850;28;20019;-71
2022/07/13 10:58:29;;;;;;;3.33;0.73;;;;;;;33.81;30.84;98951.06;5126601;28;20334;-71
2022/07/13 11:00:56;;;;;;;0.70;0.50;;;;;;;33.34;31.13;98950.72;5126838;28;20311;-71
2022/07/13 11:03:35;;;;;;;0.80;0.60;;;;;;;33.30;31.37;98935.69;5126495;28;20068;-71
2022/07/13 11:06:07;;;;;;;0.90;0.60;;;;;;;33.22;30.70;98937.56;5126701;28;20211;-71
2022/07/13 11:08:34;;;;;;;0.75;0.50;;;;;;;32.93;29.72;98927.88;5126434;28;20338;-71
2022/07/13 11:11:14;;;;;;;0.50;0.50;;;;;;;32.70;31.01;98932.13;5126562;28;20030;-71
2022/07/13 11:13:42;;;;;;;1.65;0.50;;;;;;;32.70;30.90;98929.41;5126289;28;20090;-71
2022/07/13 11:16:08;;;;;;;0.30;0.30;;;;;;;32.70;30.79;98923.97;5126101;28;20087;-71
2022/07/13 11:18:37;;;;;;;0.85;0.47;;;;;;;32.67;33.16;98940.63;5126446;28;20027;-71
2022/07/13 11:21:19;;;;;;;1.95;0.63;;;;;;;33.29;31.64;98933.13;5126151;28;20026;-71
2022/07/13 11:27:03;;;;;;;1.10;0.43;;;;;;;34.32;25.57;98940.72;5125944;28;20066;-71
2022/07/13 11:29:57;;;;;;;0.73;0.40;;;;;;;35.18;25.00;98944.56;5122110;28;20035;-71
2022/07/13 11:32:25;;;;;;;0.40;0.40;;;;;;;35.19;23.86;98940.78;5126021;28;20249;-71
2022/07/13 11:34:52;;;;;;;2.67;0.30;;;;;;;34.99;26.18;98942.22;5125936;28;20087;-71
2022/07/13 11:37:23;;;;;;;0.30;0.30;;;;;;;34.78;24.22;98930.97;5125822;28;20051;-71
2022/07/13 11:39:48;;;;;;;1.50;0.50;;;;;;;35.13;22.91;98919.59;5125900;28;20020;-71
2022/07/13 11:42:14;;;;;;;0.63;0.40;;;;;;;35.14;23.78;98915.81;5125791;28;20026;-71